• Join FlightAware (Why Join?)
  • Login
  • US Flag 
12:00AM EST


 

Airport Tracker/Info


-or-


 

Live Flight TrackerFlight Track Log ✈ N506SA ✈ 25-May-2013 ✈ KTEB - SKBO / BOG

Flight Track Log - Related Links

Times and Time Zones

All times are in EDT time to prevent confusion due to time zone crossing. See the N506SA flight status page for this flight to view local times or setup timezone preferences in your user account.

Time Position Orientation Groundspeed Altitude Reporting Facility
EDT Latitude Longitude Course Direction KTS MPH feet Rate Location/Type
01:05PM 40.8833 -74.0333 339° North 201 231 2,000  Level New York TRACON
01:06PM 40.9167 -74.0500 339° North 187 215 3,600 1,680 Climbing New York TRACON
01:07PM 40.8667 -74.1000 217° Southwest 241 277 5,400 1,740 Climbing New York TRACON
01:08PM 40.7833 -74.1333 197° South 298 343 7,100 1,980 Climbing New York TRACON
01:09PM 40.7167 -74.1833 210° Southwest 312 359 9,400 2,460 Climbing New York TRACON
01:10PM 40.6333 -74.2000 189° South 338 389 11,800 2,520 Climbing New York TRACON
01:11PM 40.5167 -74.1833 174° South 390 449 14,300 2,520 Climbing New York TRACON
01:12PM 40.4167 -74.1667 173° South 406 467 16,900 1,080 Climbing New York TRACON
01:13PM 40.2519 -74.1811 184° South 421 484 17,000 420 Climbing New York Center
01:14PM 40.1425 -74.2139 193° South 411 473 18,000 1,860 Climbing New York Center
01:16PM 39.9111 -74.3417 203° Southwest 416 479 23,100 2,340 Climbing Washington Center
01:17PM 39.8164 -74.4353 217° Southwest 424 488 25,600 2,400 Climbing Washington Center
01:18PM 39.7339 -74.5472 226° Southwest 436 502 28,100 2,160 Climbing Washington Center
01:19PM 39.6453 -74.6617 225° Southwest 443 510 29,900 900 Climbing Washington Center
01:20PM 39.5544 -74.7786 225° Southwest 448 516 30,000 1,140 Climbing Washington Center
01:21PM 39.4636 -74.9008 226° Southwest 459 528 32,300 2,280 Climbing Washington Center
01:22PM 39.3706 -75.0197 225° Southwest 464 534 34,600 1,680 Climbing Washington Center
01:23PM 39.2936 -75.1089 222° Southwest 464 534 35,800 1,380 Climbing Washington Center
01:24PM 39.1711 -75.1714 202° Southwest 471 542 37,500 1,080 Climbing Washington Center
01:25PM 39.0400 -75.2494 205° Southwest 471 542 38,000 240 Climbing Washington Center
01:26PM 38.9172 -75.3114 201° Southwest 476 548 38,000  Level Washington Center
01:27PM 38.7922 -75.3758 202° Southwest 481 554 38,000  Level Washington Center
01:28PM 38.6692 -75.4400 202° Southwest 481 554 38,000  Level Washington Center
01:29PM 38.5483 -75.5014 202° Southwest 476 548 38,000  Level Washington Center
01:30PM 38.4275 -75.5625 202° Southwest 476 548 38,000  Level Washington Center
01:31PM 38.3067 -75.6289 203° Southwest 476 548 38,000  Level Washington Center
01:32PM 38.1836 -75.6894 201° Southwest 481 554 38,000  Level Washington Center
01:33PM 38.0606 -75.7528 202° Southwest 481 554 38,000  Level Washington Center
01:34PM 37.9497 -75.8156 204° Southwest 481 554 38,000  Level Washington Center
01:35PM 37.8100 -75.8808 200° South 487 560 38,000  Level Washington Center
01:36PM 37.6783 -75.9514 203° Southwest 480 552 38,000  Level Washington Center
01:37PM 37.5531 -76.0161 202° Southwest 480 552 38,000  Level Washington Center
01:38PM 37.4297 -76.0783 202° Southwest 480 552 38,000  Level Washington Center
01:39PM 37.3022 -76.1403 201° Southwest 480 552 38,000  Level Washington Center
01:40PM 37.1872 -76.1942 200° South 487 560 38,000  Level Washington Center
01:41PM 37.0575 -76.2581 201° Southwest 493 567 38,000  Level Washington Center
01:42PM 36.9319 -76.3194 201° Southwest 493 567 38,000  Level Washington Center
01:43PM 36.8044 -76.3831 202° Southwest 493 567 38,000 -60 Level Washington Center
01:44PM 36.6786 -76.4492 203° Southwest 493 567 37,900  Descending Washington Center
01:45PM 36.5572 -76.5100 202° Southwest 488 562 38,000  Climbing Washington Center
01:46PM 36.4317 -76.5678 200° South 483 556 38,000  Level Washington Center
01:47PM 36.3058 -76.6281 201° Southwest 483 556 38,000  Level Washington Center
01:48PM 36.1678 -76.6675 193° South 495 570 38,000  Level Washington Center
01:49PM 36.0319 -76.6964 190° South 500 575 38,000 -60 Level Washington Center
01:50PM 35.8961 -76.7203 188° South 505 581 37,900  Descending Washington Center
01:51PM 35.7603 -76.7464 189° South 500 575 38,000  Climbing Washington Center
01:52PM 35.6286 -76.7728 189° South 494 568 38,000  Level Washington Center
01:53PM 35.4950 -76.7936 187° South 488 562 38,000  Level Washington Center
01:54PM 35.3653 -76.8275 192° South 483 556 38,000  Level Washington Center
01:55PM 35.2292 -76.8533 189° South 491 565 38,000  Level Washington Center
01:56PM 35.0828 -76.8814 189° South 491 565 38,000  Level Washington Center
01:57PM 34.9492 -76.9072 189° South 486 559 38,000  Level Washington Center
01:58PM 34.8153 -76.9328 189° South 486 559 38,000  Level Washington Center
01:59PM 34.6836 -76.9611 190° South 486 559 38,000  Level Washington Center
02:00PM 34.5475 -76.9839 188° South 486 559 38,000  Level Washington Center
02:01PM 34.4181 -77.0119 190° South 486 559 38,000  Level Washington Center
02:02PM 34.2800 -77.0372 189° South 486 559 38,000 120 Level Washington Center
02:04PM 33.9972 -77.0917 189° South 508 585 38,400 420 Climbing Jacksonville Center
02:05PM 33.8567 -77.1186 189° South 514 592 39,400 2,280 Climbing Jacksonville Center
02:06PM 33.7200 -77.1425 188° South 519 597 43,000 1,800 Climbing Jacksonville Center
02:07PM 33.5897 -77.1683 189° South 499 574 43,000  Level Jacksonville Center
02:08PM 33.4594 -77.1917 188° South 486 559 43,000  Level Jacksonville Center
02:09PM 33.3331 -77.2172 190° South 475 547 43,000  Level Jacksonville Center
02:10PM 33.2006 -77.2406 188° South 475 547 43,000  Level Jacksonville Center
02:11PM 33.0744 -77.2633 189° South 475 547 43,000  Level Jacksonville Center
02:12PM 32.9419 -77.2892 189° South 475 547 43,000  Level Jacksonville Center
02:13PM 32.8094 -77.3122 188° South 486 559 43,000  Level Jacksonville Center
02:14PM 32.6792 -77.3375 189° South 480 552 43,000  Level Jacksonville Center
02:15PM 32.5444 -77.3606 188° South 487 560 43,000  Level Jacksonville Center
02:16PM 32.4264 -77.3800 188° South 487 560 43,000  Level Jacksonville Center
02:17PM 32.2919 -77.4053 189° South 487 560 43,000  Level Jacksonville Center
02:18PM 32.1614 -77.4303 189° South 487 560 43,000  Level Jacksonville Center
02:19PM 32.0289 -77.4531 188° South 482 555 43,000  Level Jacksonville Center
02:20PM 31.9006 -77.4775 189° South 477 549 43,000  Level Jacksonville Center
02:21PM 31.7681 -77.5050 190° South 483 556 43,000  Level Jacksonville Center
02:22PM 31.6417 -77.5269 188° South 478 550 43,000  Level Jacksonville Center
02:23PM 31.5111 -77.5514 189° South 478 550 43,000  Level Jacksonville Center
02:24PM 31.3806 -77.5736 188° South 478 550 43,000  Level Jacksonville Center
02:25PM 31.2522 -77.5978 189° South 478 550 43,000  Level Jacksonville Center
02:26PM 31.1236 -77.6147 186° South 478 550 43,000  Level Jacksonville Center
02:27PM 30.9950 -77.6317 186° South 478 550 43,000  Level Jacksonville Center
02:28PM 30.8633 -77.6319 180° South 478 550 43,000  Level Jacksonville Center
02:29PM 30.7294 -77.6247 177° South 478 550 43,000  Level Jacksonville Center
02:32PM 30.4117 -77.6183 179° South 482 555 43,000  Level Miami Center
02:33PM 30.2722 -77.6172 180° South 476 548 43,000  Level Miami Center
02:34PM 30.1367 -77.6092 177° South 481 554 43,000  Level Miami Center
02:35PM 30.0053 -77.6058 179° South 476 548 43,000  Level Miami Center
02:36PM 29.8739 -77.6000 178° South 476 548 43,000  Level Miami Center
02:37PM 29.7406 -77.5944 178° South 472 543 43,000  Level Miami Center
02:38PM 29.6133 -77.5911 179° South 471 542 43,000  Level Miami Center
02:39PM 29.4736 -77.5831 177° South 479 551 43,000  Level Miami Center
02:40PM 29.3464 -77.5775 178° South 478 550 43,000  Level Miami Center
02:41PM 29.2150 -77.5719 178° South 473 544 43,000  Level Miami Center
02:42PM 29.0836 -77.5664 178° South 479 551 43,000  Level Miami Center
02:43PM 28.9542 -77.5631 179° South 474 545 43,000  Level Miami Center
02:44PM 28.8247 -77.5575 178° South 474 545 43,000  Level Miami Center
02:45PM 28.6914 -77.5519 178° South 480 552 43,000  Level Miami Center
02:46PM 28.5597 -77.5464 178° South 476 548 43,000  Level Miami Center
02:47PM 28.4283 -77.5433 179° South 470 541 43,000  Level Miami Center
02:48PM 28.2969 -77.5378 178° South 465 535 43,000  Level Miami Center
02:49PM 28.1717 -77.5322 178° South 470 541 43,000  Level Miami Center
02:50PM 28.0422 -77.5244 177° South 470 541 43,000  Level Miami Center
02:51PM 27.9128 -77.5214 179° South 476 548 43,000  Level Miami Center
02:52PM 27.7811 -77.5158 178° South 470 541 43,000  Level Miami Center
02:53PM 27.6456 -77.5128 179° South 476 548 43,000  Level Miami Center
02:54PM 27.5181 -77.5122 180° South 476 548 43,000  Level Miami Center
02:55PM 27.3886 -77.5019 176° South 476 548 43,000  Level Miami Center
02:56PM 27.2592 -77.5014 180° South 476 548 43,000  Level Miami Center
02:57PM 27.1361 -77.4936 177° South 465 535 43,000  Level Miami Center
02:58PM 27.0086 -77.4858 177° South 459 528 43,000  Level Miami Center
02:59PM 26.8792 -77.4853 180° South 459 528 43,000  Level Miami Center
03:00PM 26.7539 -77.4775 177° South 459 528 43,100 600 Climbing Miami Center
03:01PM 26.6367 -77.4725 178° South 459 528 44,300 900 Climbing Miami Center
03:02PM 26.5114 -77.4694 179° South 459 528 45,000 300 Climbing Miami Center
03:03PM 26.3861 -77.4642 178° South 459 528 45,000  Level Miami Center
03:04PM 26.2567 -77.4567 177° South 459 528 45,000  Level Miami Center
03:05PM 26.1228 -77.4536 179° South 465 535 45,000  Level Miami Center
03:06PM 25.9786 -77.4458 177° South 465 535 45,000  Level Miami Center
03:07PM 25.8514 -77.4431 179° South 470 541 45,000  Level Miami Center
03:08PM 25.7239 -77.4378 178° South 470 541 45,000  Level Miami Center
03:09PM 25.5922 -77.4325 178° South 465 535 45,000  Level Miami Center
03:10PM 25.4647 -77.4272 178° South 465 535 45,000  Level Miami Center
03:11PM 25.3372 -77.4244 179° South 458 527 45,000  Level Miami Center
03:12PM 25.2119 -77.4169 177° South 458 527 45,000  Level Miami Center
03:13PM 25.0781 -77.4142 179° South 463 533 45,000  Level Miami Center
03:14PM 24.9467 -77.4089 178° South 468 539 45,000  Level Miami Center
03:15PM 24.8253 -77.4039 178° South 481 554 45,000  Level Miami Center
03:16PM 24.7000 -77.4008 179° South 471 542 45,000  Level Miami Center
03:17PM 24.5703 -77.3958 178° South 466 536 45,000  Level Miami Center
03:19PM 24.3133 -77.3878 178° South 461 531 45,000  Level Miami Center
03:20PM 24.1858 -77.3850 179° South 461 531 45,000  Level Miami Center
03:21PM 24.0583 -77.3778 177° South 461 531 45,000  Level Miami Center
03:22PM 23.9289 -77.3728 178° South 461 531 45,000  Level Miami Center
03:23PM 23.8036 -77.3700 179° South 461 531 45,000  Level Miami Center
03:24PM 23.6761 -77.3672 179° South 461 531 45,000  Level Miami Center
03:25PM 23.5361 -77.3619 178° South 455 524 45,000  Level Miami Center
03:27PM 23.3264 -77.3342 176° South  Level FlightAware Approximate
03:34PM 22.4279 -77.2604 176° South  Level FlightAware Approximate
03:35PM 22.2996 -77.2500 176° South  Level FlightAware Approximate
03:36PM 22.1712 -77.2395 176° South  Level FlightAware Approximate
03:37PM 22.0429 -77.2291 176° South  Level FlightAware Approximate
03:38PM 21.9146 -77.2187 176° South  Level FlightAware Approximate
03:39PM 21.7862 -77.2083 176° South  Level FlightAware Approximate
03:40PM 21.6578 -77.1981 176° South  Level FlightAware Approximate
03:41PM 21.5294 -77.1888 176° South  Level FlightAware Approximate
03:42PM 21.4010 -77.1794 176° South  Level FlightAware Approximate
03:43PM 21.2726 -77.1701 176° South  Level FlightAware Approximate
03:44PM 21.1441 -77.1608 176° South  Level FlightAware Approximate
03:45PM 21.0157 -77.1515 176° South  Level FlightAware Approximate
03:46PM 20.8873 -77.1422 176° South  Level FlightAware Approximate
03:47PM 20.7589 -77.1330 176° South  Level FlightAware Approximate
03:48PM 20.6305 -77.1237 176° South  Level FlightAware Approximate
03:49PM 20.5021 -77.1145 176° South  Level FlightAware Approximate
03:50PM 20.3736 -77.1053 176° South  Level FlightAware Approximate
03:51PM 20.2456 -77.0919 172° South  Level FlightAware Approximate
03:52PM 20.1181 -77.0730 172° South  Level FlightAware Approximate
03:53PM 19.9906 -77.0542 172° South  Level FlightAware Approximate
03:54PM 19.8631 -77.0353 172° South  Level FlightAware Approximate
03:55PM 19.7356 -77.0165 172° South  Level FlightAware Approximate
03:56PM 19.6081 -76.9977 172° South  Level FlightAware Approximate
03:57PM 19.4806 -76.9790 172° South  Level FlightAware Approximate
03:58PM 19.3531 -76.9602 172° South  Level FlightAware Approximate
03:59PM 19.2256 -76.9422 173° South  Level FlightAware Approximate
04:00PM 19.0979 -76.9249 173° South  Level FlightAware Approximate
04:01PM 18.9702 -76.9077 173° South  Level FlightAware Approximate
04:02PM 18.8425 -76.8905 173° South  Level FlightAware Approximate
04:03PM 18.7148 -76.8734 173° South  Level FlightAware Approximate
04:04PM 18.5872 -76.8562 173° South  Level FlightAware Approximate
04:05PM 18.4595 -76.8391 173° South  Level FlightAware Approximate
04:06PM 18.3318 -76.8220 173° South  Level FlightAware Approximate
04:07PM 18.2041 -76.8050 173° South  Level FlightAware Approximate
04:08PM 18.0764 -76.7879 173° South  Level FlightAware Approximate
04:09PM 17.9487 -76.7709 173° South  Level FlightAware Approximate
04:10PM 17.8236 -76.7402 165° South  Level FlightAware Approximate
04:11PM 17.6993 -76.7049 165° South  Level FlightAware Approximate
04:12PM 17.5751 -76.6697 165° South  Level FlightAware Approximate
04:13PM 17.4508 -76.6345 165° South  Level FlightAware Approximate
04:14PM 17.3265 -76.5993 165° South  Level FlightAware Approximate
04:15PM 17.2023 -76.5642 165° South  Level FlightAware Approximate
04:16PM 17.0780 -76.5292 165° South  Level FlightAware Approximate
04:17PM 16.9537 -76.4942 165° South  Level FlightAware Approximate
04:18PM 16.8294 -76.4592 165° South  Level FlightAware Approximate
04:19PM 16.7051 -76.4243 165° South  Level FlightAware Approximate
04:20PM 16.5808 -76.3895 165° South  Level FlightAware Approximate
04:21PM 16.4565 -76.3546 165° South  Level FlightAware Approximate
04:22PM 16.3322 -76.3199 165° South  Level FlightAware Approximate
04:23PM 16.2079 -76.2851 165° South  Level FlightAware Approximate
04:24PM 16.0835 -76.2505 165° South  Level FlightAware Approximate
04:25PM 15.9592 -76.2158 165° South  Level FlightAware Approximate
04:26PM 15.8349 -76.1812 165° South  Level FlightAware Approximate
04:27PM 15.7105 -76.1467 165° South  Level FlightAware Approximate
04:28PM 15.5862 -76.1121 165° South  Level FlightAware Approximate
04:29PM 15.4618 -76.0777 165° South  Level FlightAware Approximate
04:30PM 15.3375 -76.0432 165° South  Level FlightAware Approximate
04:31PM 15.2131 -76.0088 165° South  Level FlightAware Approximate
04:32PM 15.0887 -75.9745 165° South  Level FlightAware Approximate
04:33PM 14.9644 -75.9401 165° South  Level FlightAware Approximate
04:34PM 14.8401 -75.9055 165° South  Level FlightAware Approximate
04:35PM 14.7158 -75.8710 165° South  Level FlightAware Approximate
04:36PM 14.5914 -75.8365 165° South  Level FlightAware Approximate
04:37PM 14.4671 -75.8021 165° South  Level FlightAware Approximate
04:38PM 14.3428 -75.7677 165° South  Level FlightAware Approximate
04:39PM 14.2185 -75.7334 165° South  Level FlightAware Approximate
04:40PM 14.0941 -75.6990 165° South  Level FlightAware Approximate
04:41PM 13.9698 -75.6647 165° South  Level FlightAware Approximate
04:42PM 13.8454 -75.6305 165° South  Level FlightAware Approximate
04:43PM 13.7211 -75.5963 165° South  Level FlightAware Approximate
04:44PM 13.5967 -75.5621 165° South  Level FlightAware Approximate
04:45PM 13.4724 -75.5280 165° South  Level FlightAware Approximate
04:46PM 13.3480 -75.4939 165° South  Level FlightAware Approximate
04:47PM 13.2236 -75.4598 165° South  Level FlightAware Approximate
04:48PM 13.0992 -75.4258 165° South  Level FlightAware Approximate
04:49PM 12.9749 -75.3918 165° South  Level FlightAware Approximate
04:50PM 12.8505 -75.3578 165° South  Level FlightAware Approximate
04:51PM 12.7261 -75.3239 165° South  Level FlightAware Approximate
04:52PM 12.6017 -75.2900 165° South  Level FlightAware Approximate
04:53PM 12.4773 -75.2561 165° South  Level FlightAware Approximate
04:54PM 12.3529 -75.2223 165° South  Level FlightAware Approximate
04:55PM 12.2285 -75.1885 165° South  Level FlightAware Approximate
04:56PM 12.1041 -75.1547 165° South  Level FlightAware Approximate
04:57PM 11.9797 -75.1210 165° South  Level FlightAware Approximate
04:58PM 11.8553 -75.0873 165° South  Level FlightAware Approximate
04:59PM 11.7308 -75.0536 165° South  Level FlightAware Approximate
05:00PM 11.6064 -75.0200 165° South  Level FlightAware Approximate
05:01PM 11.4820 -74.9863 165° South  Level FlightAware Approximate
05:02PM 11.3575 -74.9528 165° South  Level FlightAware Approximate
05:03PM 11.2331 -74.9192 165° South  Level FlightAware Approximate
05:04PM 11.1087 -74.8857 165° South  Level FlightAware Approximate
05:05PM 10.9843 -74.8521 165° South  Level FlightAware Approximate
05:06PM 10.8598 -74.8185 165° South  Level FlightAware Approximate
05:07PM 10.7354 -74.7849 165° South  Level FlightAware Approximate
05:08PM 10.6110 -74.7514 165° South  Level FlightAware Approximate
05:09PM 10.4866 -74.7179 165° South  Level FlightAware Approximate
05:10PM 10.3621 -74.6844 165° South  Level FlightAware Approximate
05:11PM 10.2377 -74.6510 165° South  Level FlightAware Approximate
05:12PM 10.1132 -74.6176 165° South  Level FlightAware Approximate
05:13PM 9.9888 -74.5842 165° South  Level FlightAware Approximate
05:14PM 9.8644 -74.5508 165° South  Level FlightAware Approximate
05:15PM 9.7399 -74.5175 165° South  Level FlightAware Approximate
05:16PM 9.6154 -74.4842 165° South  Level FlightAware Approximate
05:17PM 9.4909 -74.4511 165° South  Level FlightAware Approximate
05:18PM 9.3664 -74.4182 165° South  Level FlightAware Approximate
05:19PM 9.2418 -74.3853 165° South  Level FlightAware Approximate
05:20PM 9.1173 -74.3525 165° South  Level FlightAware Approximate
05:21PM 8.9927 -74.3197 165° South  Level FlightAware Approximate
05:22PM 8.8681 -74.2869 165° South  Level FlightAware Approximate
05:23PM 8.7435 -74.2542 165° South  Level FlightAware Approximate
05:24PM 8.6189 -74.2214 165° South  Level FlightAware Approximate
05:25PM 8.4944 -74.1887 165° South  Level FlightAware Approximate
05:26PM 8.3698 -74.1560 165° South  Level FlightAware Approximate
05:27PM 8.2452 -74.1233 165° South  Level FlightAware Approximate
05:28PM 8.1206 -74.0907 165° South  Level FlightAware Approximate
05:29PM 7.9960 -74.0580 165° South  Level FlightAware Approximate
05:30PM 7.8714 -74.0254 165° South  Level FlightAware Approximate
05:31PM 7.7468 -73.9928 165° South  Level FlightAware Approximate
05:32PM 7.6222 -73.9602 165° South  Level FlightAware Approximate
05:33PM 7.4976 -73.9277 165° South  Level FlightAware Approximate
05:34PM 7.3730 -73.8951 165° South  Level FlightAware Approximate
05:35PM 7.2484 -73.8626 165° South  Level FlightAware Approximate
05:36PM 7.1240 -73.8293 165° South  Level FlightAware Approximate
05:37PM 6.9992 -73.8000 180° South  Level FlightAware Approximate
05:38PM 6.8705 -73.8000 180° South  Level FlightAware Approximate
05:39PM 6.7420 -73.8058 186° South  Level FlightAware Approximate
05:40PM 6.6139 -73.8167 180° South  Level FlightAware Approximate
05:41PM 6.4851 -73.8167 180° South  Level FlightAware Approximate
05:42PM 6.3564 -73.8167 180° South  Level FlightAware Approximate
05:43PM 6.2279 -73.8209 184° South  Level FlightAware Approximate
05:44PM 6.0995 -73.8308 184° South  Level FlightAware Approximate
05:45PM 5.9710 -73.8362 182° South  Level FlightAware Approximate
05:46PM 5.8423 -73.8401 182° South  Level FlightAware Approximate
05:47PM 5.7136 -73.8440 182° South  Level FlightAware Approximate
05:48PM 5.5850 -73.8479 182° South  Level FlightAware Approximate
05:49PM 5.4626 -73.8770 206° Southwest  Level FlightAware Approximate
05:50PM 5.3402 -73.9163 197° South  Level FlightAware Approximate
05:51PM 5.2175 -73.9553 198° South  Level FlightAware Approximate
05:52PM 5.0953 -73.9960 198° South  Level FlightAware Approximate
05:53PM 4.9732 -74.0367 198° South  Level FlightAware Approximate
05:54PM 4.8528 -74.0822 202° Southwest  Level FlightAware Approximate
05:55PM 4.7316 -74.1228 198° South  Level FlightAware Approximate
05:56PM 4.7000 -74.1333 198° South  Level FlightAware Approximate
05:57PM 4.7016 -74.1469 198° South  Level Estimated
05:58PM 4.7016 -74.1469 198° South  Level Estimated
05:59PM 4.7016 -74.1469 198° South  Level Estimated
06:00PM 4.7016 -74.1469 198° South  Level Estimated
06:01PM 4.7016 -74.1469 198° South  Level Estimated
06:02PM 4.7016 -74.1469 198° South  Level Estimated
06:03PM 4.7016 -74.1469 198° South  Level Estimated
06:04PM 4.7016 -74.1469 198° South  Level Estimated
06:05PM 4.7016 -74.1469 198° South  Level Estimated
06:06PM 4.7016 -74.1469 198° South  Level Estimated
06:07PM 4.7016 -74.1469 198° South  Level Estimated
06:08PM 4.7016 -74.1469 198° South  Level Estimated
06:09PM 4.7016 -74.1469 198° South  Level Estimated
06:10PM 4.7016 -74.1469 198° South  Level Estimated